Time;durP1;ratioP1;P1;durP2;ratioP2;P2;SDS_P1;SDS_P2;PMS_P1;PMS_P2;Temp;Humidity;BMP_temperature;BMP_pressure;BME280_temperature;BME280_humidity;BME280_pressure;Samples;Min_cycle;Max_cycle;Signal;HPM_P1;HPM_P2
2021/06/15 00:00:41;;;;;;;3.42;3.25;;;;;;;20.00;65.88;100207.77;1706946;82;20139;-77
2021/06/15 00:03:07;;;;;;;;;;;;;;;19.94;66.09;100209.59;1721714;82;21589;-77
2021/06/15 00:05:35;;;;;;;4.25;4.00;;;;;;;19.97;66.04;100200.98;1709410;82;20219;-77
2021/06/15 00:08:01;;;;;;;;;;;;;;;19.97;66.10;100204.23;1710384;82;21024;-76
2021/06/15 00:10:27;;;;;;;4.47;4.17;;;;;;;19.98;65.94;100208.55;1720530;82;20211;-76
2021/06/15 00:12:57;;;;;;;5.08;3.95;;;;;;;19.91;66.06;100211.47;1747686;80;21033;-76
2021/06/15 00:15:24;;;;;;;3.83;3.52;;;;;;;19.93;66.11;100201.22;1738854;80;21120;-77
2021/06/15 00:17:52;;;;;;;3.75;3.45;;;;;;;19.98;65.96;100203.14;1747679;80;21026;-76
2021/06/15 00:20:21;;;;;;;4.28;4.03;;;;;;;19.98;65.87;100201.25;1756397;80;21022;-77
2021/06/15 00:22:48;;;;;;;4.37;4.03;;;;;;;19.95;65.99;100196.36;1770138;80;21511;-77
2021/06/15 00:25:16;;;;;;;5.58;4.00;;;;;;;19.97;66.11;100191.52;1759325;80;21045;-76
2021/06/15 00:27:44;;;;;;;5.80;4.33;;;;;;;20.06;66.24;100191.89;1760415;80;21121;-77
2021/06/15 00:30:13;;;;;;;4.35;4.12;;;;;;;20.22;65.92;100190.14;1757458;80;21086;-77
2021/06/15 00:32:40;;;;;;;3.90;3.60;;;;;;;20.34;65.47;100191.33;1749832;80;21090;-77
2021/06/15 00:35:07;;;;;;;4.45;3.67;;;;;;;20.35;65.15;100191.62;1756808;80;21336;-78
2021/06/15 00:37:34;;;;;;;4.03;3.92;;;;;;;20.26;65.23;100188.55;1758855;80;21741;-77
2021/06/15 00:40:01;;;;;;;5.62;4.62;;;;;;;20.19;65.30;100191.98;1759983;80;21124;-78
2021/06/15 00:42:27;;;;;;;5.05;4.67;;;;;;;20.15;65.42;100183.56;1760358;80;21073;-79
2021/06/15 00:44:54;;;;;;;4.42;4.12;;;;;;;20.18;65.29;100183.61;1771607;79;20958;-77
2021/06/15 00:47:20;;;;;;;;;;;;;;;20.17;65.32;100185.51;1722052;82;21017;-77
2021/06/15 00:49:46;;;;;;;5.15;3.72;;;;;;;20.20;65.42;100180.11;1731773;82;20180;-76
2021/06/15 00:52:14;;;;;;;4.95;4.62;;;;;;;20.13;65.45;100187.61;1730634;82;21011;-77
2021/06/15 00:54:44;;;;;;;5.87;4.50;;;;;;;20.07;65.54;100191.34;1720533;82;21081;-78
2021/06/15 00:57:17;;;;;;;4.75;4.53;;;;;;;19.98;65.61;100183.66;1727925;82;21026;-78
2021/06/15 00:59:45;;;;;;;4.00;3.80;;;;;;;19.92;65.83;100186.04;1692116;84;21578;-78
2021/06/15 01:02:11;;;;;;;3.33;3.17;;;;;;;19.93;65.70;100184.98;1704396;83;21041;-77
2021/06/15 01:04:39;;;;;;;5.22;4.15;;;;;;;19.87;65.70;100185.17;1715610;82;21070;-77
2021/06/15 01:07:36;;;;;;;3.80;3.52;;;;;;;19.74;65.89;100185.86;1706036;82;21031;-77
2021/06/15 01:10:14;;;;;;;5.20;4.70;;;;;;;19.64;66.20;100183.80;1715414;82;21004;-78
2021/06/15 01:12:46;;;;;;;4.40;4.20;;;;;;;19.55;66.69;100179.92;1726317;81;21061;-76
2021/06/15 01:15:26;;;;;;;4.05;3.85;;;;;;;19.55;66.75;100178.58;1753339;81;21046;-76
2021/06/15 01:17:57;;;;;;;4.53;4.22;;;;;;;19.61;66.77;100179.45;1721382;83;21023;-78
2021/06/15 01:20:32;;;;;;;4.85;3.95;;;;;;;19.73;66.52;100173.94;1754889;81;21019;-78
2021/06/15 01:23:36;;;;;;;4.12;3.83;;;;;;;19.76;66.34;100176.11;1678795;83;21097;-78
2021/06/15 01:26:26;;;;;;;5.03;4.72;;;;;;;19.75;66.41;100179.36;1712001;82;21011;-78
2021/06/15 01:29:17;;;;;;;4.67;4.47;;;;;;;19.70;66.43;100181.16;1704418;83;21045;-76
2021/06/15 01:31:51;;;;;;;4.03;3.27;;;;;;;19.65;66.41;100180.58;1699954;83;21079;-76
2021/06/15 01:34:25;;;;;;;3.87;3.70;;;;;;;19.65;66.30;100177.88;1680228;84;21605;-78
2021/06/15 01:37:20;;;;;;;4.20;4.00;;;;;;;19.71;66.20;100182.80;1673776;84;21040;-79
2021/06/15 01:40:15;;;;;;;5.67;5.28;;;;;;;19.79;66.39;100183.73;1676861;84;21490;-78
2021/06/15 01:42:58;;;;;;;3.85;3.55;;;;;;;19.88;66.21;100184.11;1566377;90;21069;-78
2021/06/15 01:45:32;;;;;;;3.83;3.60;;;;;;;19.93;66.13;100190.39;1582555;81;21082;-77
2021/06/15 01:48:32;;;;;;;4.40;4.08;;;;;;;20.11;65.50;100189.76;1748722;81;21038;-79
2021/06/15 01:51:03;;;;;;;5.35;3.90;;;;;;;20.26;64.77;100193.96;1734561;81;21105;-78
2021/06/15 01:53:36;;;;;;;5.50;4.97;;;;;;;20.32;64.63;100199.70;1717008;82;21533;-77
2021/06/15 01:56:04;;;;;;;5.08;4.67;;;;;;;20.35;64.33;100195.68;1716041;82;21539;-77
2021/06/15 01:58:34;;;;;;;5.30;4.90;;;;;;;20.26;64.18;100193.96;1729898;82;21033;-77
2021/06/15 02:01:03;;;;;;;4.90;4.45;;;;;;;20.08;64.50;100188.39;1728311;81;21815;-78
2021/06/15 02:03:32;;;;;;;5.40;5.00;;;;;;;19.93;64.87;100189.55;1742699;81;21757;-78
2021/06/15 02:06:02;;;;;;;6.12;4.62;;;;;;;19.84;65.21;100201.38;1732398;81;21002;-78
2021/06/15 02:08:36;;;;;;;4.90;4.60;;;;;;;19.73;65.59;100200.44;1731477;81;21026;-77
2021/06/15 02:11:05;;;;;;;5.00;4.53;;;;;;;19.59;66.06;100197.78;1728130;82;21060;-76
2021/06/15 02:13:45;;;;;;;5.00;4.70;;;;;;;19.47;66.47;100203.32;1731035;81;21123;-77
2021/06/15 02:16:16;;;;;;;4.58;4.20;;;;;;;19.38;66.88;100205.66;1670640;83;21010;-76
2021/06/15 02:19:02;;;;;;;6.35;5.78;;;;;;;19.39;67.19;100207.81;1714547;81;21069;-78
2021/06/15 02:21:44;;;;;;;5.70;5.20;;;;;;;19.55;67.18;100206.13;1730740;81;21046;-77
2021/06/15 02:24:11;;;;;;;6.35;5.90;;;;;;;19.69;66.94;100193.87;1724095;81;21006;-76
2021/06/15 02:26:40;;;;;;;6.17;5.75;;;;;;;19.98;66.61;100199.09;1732701;81;21503;-75
2021/06/15 02:29:11;;;;;;;5.78;5.42;;;;;;;20.24;66.07;100200.17;1728605;81;21021;-76
2021/06/15 02:31:42;;;;;;;5.37;4.90;;;;;;;20.52;65.32;100203.68;1717404;81;21211;-77
2021/06/15 02:34:13;;;;;;;5.22;4.83;;;;;;;20.79;64.45;100198.23;1731994;81;20972;-76
2021/06/15 02:36:44;;;;;;;5.33;4.97;;;;;;;21.07;63.76;100202.48;1732013;81;21026;-76
2021/06/15 02:39:18;;;;;;;4.92;4.53;;;;;;;21.34;62.79;100196.13;1725806;81;21033;-76
2021/06/15 02:41:45;;;;;;;4.37;4.08;;;;;;;21.60;62.13;100199.00;1731005;81;21010;-76
2021/06/15 02:44:18;;;;;;;5.50;5.20;;;;;;;21.86;61.43;100193.94;1726709;81;21041;-77
2021/06/15 02:46:45;;;;;;;5.37;5.08;;;;;;;22.12;60.62;100198.89;1729777;82;21551;-78
2021/06/15 02:49:18;;;;;;;4.97;4.67;;;;;;;22.35;59.88;100202.21;1729832;82;21033;-78
2021/06/15 02:52:10;;;;;;;5.28;4.97;;;;;;;22.59;59.38;100198.98;1734985;82;21022;-77
2021/06/15 02:54:52;;;;;;;4.90;4.55;;;;;;;22.10;58.66;100072.69;1722781;82;20961;-78
2021/06/15 02:57:20;;;;;;;6.42;5.92;;;;;;;23.21;57.71;100199.75;1720044;82;21565;-77
2021/06/15 02:59:47;;;;;;;8.60;5.33;;;;;;;23.50;56.81;100206.16;1730177;82;20985;-78
2021/06/15 03:02:13;;;;;;;8.75;8.20;;;;;;;23.78;56.14;100207.95;1727183;82;21476;-76
2021/06/15 03:04:46;;;;;;;6.28;5.87;;;;;;;24.06;55.33;100208.39;1728626;81;21026;-78
2021/06/15 03:07:13;;;;;;;4.78;4.47;;;;;;;24.36;54.56;100201.12;1712399;83;21045;-77
2021/06/15 03:09:40;;;;;;;5.17;4.97;;;;;;;24.65;54.00;100203.91;1685446;84;20996;-79
2021/06/15 03:12:13;;;;;;;5.58;5.17;;;;;;;24.91;53.17;100203.13;1690939;84;20995;-79
2021/06/15 03:14:46;;;;;;;5.12;4.83;;;;;;;25.17;52.59;100200.95;1686819;84;21141;-80
2021/06/15 03:17:13;;;;;;;5.08;4.58;;;;;;;25.44;51.82;100200.95;1683213;84;21124;-79
2021/06/15 03:20:11;;;;;;;6.58;6.12;;;;;;;25.67;50.86;100206.13;1688265;84;21092;-79
2021/06/15 03:23:02;;;;;;;6.60;5.70;;;;;;;25.86;50.26;100197.95;1707463;82;21325;-79
2021/06/15 03:25:35;;;;;;;4.40;4.20;;;;;;;26.02;49.91;100198.59;1717787;82;21022;-78
2021/06/15 03:28:11;;;;;;;5.12;4.83;;;;;;;26.14;49.65;100192.69;1685714;83;21059;-82
2021/06/15 03:30:42;;;;;;;5.25;4.95;;;;;;;26.19;49.63;100202.98;1660201;85;21052;-81
2021/06/15 03:33:15;;;;;;;5.55;5.25;;;;;;;26.21;49.76;100199.39;1714148;82;21004;-77
2021/06/15 03:35:47;;;;;;;6.25;5.72;;;;;;;26.16;49.84;100202.23;1672854;85;21081;-77
2021/06/15 03:38:15;;;;;;;6.30;5.70;;;;;;;26.20;49.76;100202.42;1705295;82;21526;-78
2021/06/15 03:40:52;;;;;;;7.17;6.28;;;;;;;26.18;49.57;100208.73;1712672;82;21012;-78
2021/06/15 03:43:21;;;;;;;7.58;7.00;;;;;;;26.19;49.46;100200.81;1711709;82;21092;-79
2021/06/15 03:45:52;;;;;;;7.75;6.55;;;;;;;26.23;49.32;100201.84;1735241;81;21186;-80
2021/06/15 03:48:20;;;;;;;6.33;5.83;;;;;;;26.44;48.58;100205.05;1738826;81;20965;-79
2021/06/15 03:50:50;;;;;;;8.80;7.67;;;;;;;26.57;48.18;100208.39;1728581;82;21486;-78
2021/06/15 03:53:17;;;;;;;6.12;5.65;;;;;;;26.65;48.31;100208.86;1750489;81;20982;-79
2021/06/15 03:55:46;;;;;;;5.83;5.30;;;;;;;26.90;48.00;100202.95;1690279;83;21050;-79
2021/06/15 03:58:15;;;;;;;6.15;5.85;;;;;;;27.23;47.11;100196.05;1728788;82;21020;-79
2021/06/15 04:00:46;;;;;;;5.80;5.30;;;;;;;27.44;45.99;100192.94;1704951;83;21314;-79
2021/06/15 04:03:15;;;;;;;6.40;5.90;;;;;;;27.55;45.82;100195.71;1737287;82;21041;-78
2021/06/15 04:05:43;;;;;;;8.75;6.28;;;;;;;27.65;45.46;100198.79;1725893;82;21065;-79
2021/06/15 04:08:14;;;;;;;5.83;5.42;;;;;;;27.81;45.30;100197.92;1741545;80;21054;-80
2021/06/15 04:10:44;;;;;;;10.82;5.78;;;;;;;28.05;44.45;100199.86;1713108;83;21035;-79
2021/06/15 04:13:11;;;;;;;5.92;5.45;;;;;;;28.09;44.28;100206.34;1742639;81;21004;-80
2021/06/15 04:15:37;;;;;;;5.17;4.83;;;;;;;27.98;44.43;100207.69;1736484;81;21025;-81
2021/06/15 04:18:06;;;;;;;5.78;5.15;;;;;;;27.79;44.81;100211.11;1709150;83;21081;-81
2021/06/15 04:20:36;;;;;;;4.92;4.62;;;;;;;27.57;45.61;100209.91;1713492;81;21064;-77
2021/06/15 04:23:07;;;;;;;4.87;4.53;;;;;;;27.71;45.29;100209.34;1739581;81;21151;-78
2021/06/15 04:25:41;;;;;;;6.70;4.55;;;;;;;28.02;44.44;100207.89;1739735;81;21026;-77
2021/06/15 04:28:08;;;;;;;5.78;4.58;;;;;;;28.21;43.76;100210.47;1715255;83;20995;-72
2021/06/15 04:30:35;;;;;;;9.03;4.85;;;;;;;28.35;43.68;100208.50;1691983;83;21014;-79
2021/06/15 04:33:07;;;;;;;5.40;4.90;;;;;;;28.59;43.16;100212.30;1751106;81;20971;-80
2021/06/15 04:35:46;;;;;;;4.00;3.80;;;;;;;28.71;42.91;100210.38;1753423;81;21026;-81
2021/06/15 04:38:47;;;;;;;5.65;4.80;;;;;;;28.72;42.45;100211.98;1739127;81;21020;-80
2021/06/15 04:41:18;;;;;;;6.30;5.47;;;;;;;28.54;42.97;100210.51;1717233;83;21061;-80
2021/06/15 04:44:03;;;;;;;5.22;4.85;;;;;;;28.52;42.90;100208.64;1740540;81;21094;-82
2021/06/15 04:46:50;;;;;;;6.28;5.30;;;;;;;28.57;42.89;100211.00;1716692;83;21044;-82
2021/06/15 04:50:02;;;;;;;5.92;5.03;;;;;;;28.53;42.84;100210.25;1724296;82;21552;-81
2021/06/15 04:52:31;;;;;;;4.58;4.28;;;;;;;28.48;43.35;100211.73;1619384;87;21129;-78
2021/06/15 04:55:00;;;;;;;3.87;3.58;;;;;;;28.46;43.11;100208.50;1692170;82;21110;-79
2021/06/15 04:57:32;;;;;;;4.97;3.72;;;;;;;28.38;42.02;100212.53;1727956;82;21072;-76
2021/06/15 05:00:01;;;;;;;3.67;3.47;;;;;;;28.22;42.30;100211.53;1752728;81;21661;-79
2021/06/15 05:02:28;;;;;;;4.05;3.47;;;;;;;28.11;42.28;100211.52;1739369;81;21120;-81
2021/06/15 05:04:55;;;;;;;4.30;3.17;;;;;;;28.05;41.92;100210.82;1733807;81;21041;-75
2021/06/15 05:07:23;;;;;;;4.30;3.90;;;;;;;27.83;41.79;100208.00;1715114;82;21539;-75
2021/06/15 05:09:54;;;;;;;4.25;3.87;;;;;;;27.75;42.67;100210.91;1740312;81;21524;-74
2021/06/15 05:12:28;;;;;;;3.30;3.12;;;;;;;27.87;42.64;100214.48;1736618;81;21120;-74
2021/06/15 05:14:58;;;;;;;4.65;4.35;;;;;;;27.97;41.79;100210.16;1734825;81;21076;-75
2021/06/15 05:17:25;;;;;;;4.75;4.45;;;;;;;27.92;42.13;100214.41;1705621;82;21073;-74
2021/06/15 05:19:51;;;;;;;4.28;3.98;;;;;;;27.78;42.91;100208.91;1734070;81;21057;-74
2021/06/15 05:22:29;;;;;;;3.60;3.40;;;;;;;27.74;42.54;100212.02;1757067;80;21049;-73
2021/06/15 05:24:59;;;;;;;4.20;3.17;;;;;;;27.74;42.92;100208.70;1725880;81;21152;-74
2021/06/15 05:27:30;;;;;;;3.92;3.72;;;;;;;27.75;42.70;100213.08;1733585;81;21088;-74
2021/06/15 05:29:57;;;;;;;5.97;4.25;;;;;;;27.89;42.09;100209.53;1747244;81;21012;-75
2021/06/15 05:32:24;;;;;;;4.90;3.77;;;;;;;28.14;42.66;100214.45;1748136;81;21084;-79
2021/06/15 05:34:50;;;;;;;5.10;3.60;;;;;;;28.49;42.10;100210.59;1738755;81;21005;-82
2021/06/15 05:37:19;;;;;;;4.22;3.87;;;;;;;28.73;41.75;100214.42;1742497;81;21078;-80
2021/06/15 05:39:47;;;;;;;5.17;4.67;;;;;;;28.48;41.86;100218.59;1737009;81;21073;-80
2021/06/15 05:42:13;;;;;;;4.50;4.30;;;;;;;28.04;42.88;100221.52;1735140;81;21036;-80
2021/06/15 05:44:43;;;;;;;4.58;4.17;;;;;;;27.96;43.36;100226.37;1741741;81;21096;-83
2021/06/15 05:47:11;;;;;;;5.12;4.87;;;;;;;28.04;43.25;100224.25;1742602;81;21076;-80
2021/06/15 05:49:37;;;;;;;5.03;4.58;;;;;;;27.96;43.12;100222.26;1736554;81;21587;-78
2021/06/15 05:52:11;;;;;;;5.12;4.83;;;;;;;27.90;43.77;100217.45;1752981;81;21025;-83
2021/06/15 05:54:39;;;;;;;4.87;4.45;;;;;;;28.08;43.38;100219.77;1747284;81;21046;-83
2021/06/15 05:57:07;;;;;;;4.90;4.37;;;;;;;28.14;43.33;100216.36;1744024;81;21037;-84
2021/06/15 05:59:35;;;;;;;4.47;4.17;;;;;;;28.21;43.06;100214.01;1753161;81;21001;-85
2021/06/15 06:02:02;;;;;;;4.80;4.37;;;;;;;28.36;43.01;100214.20;1737712;81;21032;-83
2021/06/15 06:04:33;;;;;;;4.28;3.98;;;;;;;28.32;43.01;100215.39;1737521;81;21013;-82
2021/06/15 06:09:42;;;;;;;4.97;4.53;;;;;;;28.23;43.35;100210.96;1738270;81;21051;-73
2021/06/15 06:12:09;;;;;;;4.33;4.03;;;;;;;28.28;43.64;100205.38;1725510;81;21105;-81
2021/06/15 06:14:37;;;;;;;5.08;4.67;;;;;;;28.34;43.49;100209.03;1727670;82;21113;-82
2021/06/15 06:17:08;;;;;;;3.70;3.50;;;;;;;28.40;43.17;100201.50;1750182;81;21080;-82
2021/06/15 06:19:36;;;;;;;5.85;4.75;;;;;;;28.30;43.25;100202.55;1716747;82;21088;-82
2021/06/15 06:22:04;;;;;;;4.30;4.00;;;;;;;28.22;43.44;100205.22;1737913;81;21054;-80
2021/06/15 06:24:30;;;;;;;3.85;3.58;;;;;;;28.12;43.67;100211.21;1738298;81;21025;-82
2021/06/15 06:27:00;;;;;;;3.83;3.65;;;;;;;28.10;43.71;100207.14;1716030;82;21074;-82
2021/06/15 06:29:27;;;;;;;4.22;3.95;;;;;;;27.95;44.19;100204.19;1715649;82;21026;-84
2021/06/15 06:31:53;;;;;;;5.33;4.90;;;;;;;27.89;45.02;100204.86;1738666;82;21064;-81
2021/06/15 06:34:19;;;;;;;3.85;3.65;;;;;;;28.03;44.31;100203.48;1739313;81;21060;-82
2021/06/15 06:36:45;;;;;;;5.75;3.87;;;;;;;28.25;43.85;100201.30;1737388;81;21594;-81
2021/06/15 06:39:11;;;;;;;4.12;3.92;;;;;;;28.39;43.41;100197.69;1748993;81;21256;-83
2021/06/15 06:41:39;;;;;;;8.38;4.22;;;;;;;28.35;43.66;100201.08;1740118;81;21065;-82
2021/06/15 06:44:06;;;;;;;5.70;3.70;;;;;;;28.30;44.08;100203.13;1732535;80;21051;-83
2021/06/15 06:46:33;;;;;;;4.85;3.37;;;;;;;28.47;43.63;100204.62;1705159;81;21057;-84
2021/06/15 06:48:59;;;;;;;5.85;4.12;;;;;;;28.67;43.37;100199.23;1732923;81;21570;-83
2021/06/15 06:51:25;;;;;;;7.85;4.65;;;;;;;28.70;42.94;100204.63;1749820;81;21502;-81
2021/06/15 06:53:52;;;;;;;5.08;4.10;;;;;;;28.69;43.11;100201.66;1752901;81;21093;-83
2021/06/15 06:56:19;;;;;;;4.15;3.85;;;;;;;28.75;43.43;100200.97;1734115;81;21046;-83
2021/06/15 06:58:46;;;;;;;4.95;4.55;;;;;;;28.82;43.58;100199.94;1731890;81;21005;-83
2021/06/15 07:01:15;;;;;;;4.35;4.15;;;;;;;28.94;43.11;100202.92;1739668;81;21050;-83
2021/06/15 07:03:41;;;;;;;4.47;3.77;;;;;;;28.93;43.17;100188.94;1743421;81;21112;-83
2021/06/15 07:06:07;;;;;;;4.90;4.28;;;;;;;28.75;43.47;100197.66;1719252;82;21057;-83
2021/06/15 07:08:33;;;;;;;4.17;3.98;;;;;;;28.77;44.40;100195.41;1730828;81;21103;-82
2021/06/15 07:11:02;;;;;;;6.12;4.33;;;;;;;28.98;43.27;100190.75;1705284;82;21556;-83
2021/06/15 07:13:28;;;;;;;4.87;4.50;;;;;;;28.79;43.45;100188.24;1712822;82;20987;-81
2021/06/15 07:15:55;;;;;;;4.42;4.17;;;;;;;28.55;44.07;100188.01;1709169;82;21068;-83
2021/06/15 07:18:21;;;;;;;4.20;4.00;;;;;;;28.46;44.16;100182.45;1701720;82;21084;-83
2021/06/15 07:20:47;;;;;;;5.95;4.42;;;;;;;28.49;44.44;100181.81;1710252;82;21030;-82
2021/06/15 07:24:21;;;;;;;4.45;4.15;;;;;;;28.71;44.50;100176.10;1696799;77;22914;-81
2021/06/15 07:26:49;;;;;;;4.53;4.28;;;;;;;28.88;44.06;100174.81;1665887;84;21112;-83
2021/06/15 07:29:15;;;;;;;4.15;4.03;;;;;;;28.91;44.26;100186.54;1643457;84;21041;-82
2021/06/15 07:31:41;;;;;;;6.83;4.12;;;;;;;28.87;43.96;100180.03;1648389;84;21698;-82
2021/06/15 07:34:07;;;;;;;5.25;4.92;;;;;;;28.85;44.17;100175.44;1650457;84;21451;-83
2021/06/15 07:36:35;;;;;;;5.15;4.85;;;;;;;28.78;44.09;100178.38;1668630;84;21059;-82
2021/06/15 07:39:01;;;;;;;6.33;5.08;;;;;;;28.53;45.33;100173.23;1668020;84;21099;-82
2021/06/15 07:41:28;;;;;;;5.25;4.95;;;;;;;28.32;44.99;100174.84;1657194;84;21103;-82
2021/06/15 07:43:54;;;;;;;5.03;4.67;;;;;;;28.15;46.02;100177.70;1668269;84;21099;-81
2021/06/15 07:46:20;;;;;;;4.87;4.47;;;;;;;28.17;46.11;100174.65;1702765;83;21078;-81
2021/06/15 07:48:46;;;;;;;4.95;4.62;;;;;;;28.22;46.43;100181.92;1714250;83;21171;-82
2021/06/15 07:51:13;;;;;;;5.62;5.22;;;;;;;28.20;45.94;100177.32;1708129;83;21084;-83
2021/06/15 07:53:39;;;;;;;4.87;4.65;;;;;;;27.96;46.37;100170.21;1711686;83;20981;-82
2021/06/15 07:56:05;;;;;;;5.03;4.85;;;;;;;27.77;47.15;100171.70;1698213;81;21178;-84
2021/06/15 07:58:32;;;;;;;5.08;4.87;;;;;;;27.75;47.05;100172.00;1704635;83;21016;-82
2021/06/15 08:00:58;;;;;;;5.47;5.17;;;;;;;27.70;47.05;100169.94;1687550;83;21113;-82
2021/06/15 08:03:24;;;;;;;5.40;4.33;;;;;;;27.62;47.28;100164.63;1659731;84;21085;-81
2021/06/15 08:05:50;;;;;;;4.22;4.03;;;;;;;27.49;47.55;100162.73;1663415;84;21117;-81
2021/06/15 08:08:16;;;;;;;7.40;4.70;;;;;;;27.39;48.23;100158.28;1663636;84;21294;-83
2021/06/15 08:10:43;;;;;;;4.35;4.15;;;;;;;27.43;48.04;100159.86;1665293;84;21586;-82
2021/06/15 08:13:09;;;;;;;3.22;2.67;;;;;;;27.51;47.04;100160.49;1656142;85;21068;-82
2021/06/15 08:15:37;;;;;;;4.80;4.40;;;;;;;27.54;46.27;100141.53;1650057;84;21597;-83
2021/06/15 08:18:04;;;;;;;4.50;4.20;;;;;;;27.64;46.59;100145.97;1669688;83;22309;-81
2021/06/15 08:20:32;;;;;;;8.90;4.55;;;;;;;27.67;46.83;100150.01;1683969;83;21175;-82
2021/06/15 08:22:59;;;;;;;4.80;4.50;;;;;;;27.59;46.77;100144.70;1681282;82;21125;-83
2021/06/15 08:25:28;;;;;;;4.30;3.92;;;;;;;27.52;46.97;100138.30;1695115;82;21583;-81
2021/06/15 08:27:55;;;;;;;4.72;4.33;;;;;;;27.50;47.23;100139.16;1696005;82;21519;-81
2021/06/15 08:30:22;;;;;;;3.47;3.17;;;;;;;27.45;46.94;100135.16;1699204;82;21554;-82
2021/06/15 08:32:48;;;;;;;3.65;3.35;;;;;;;27.38;47.28;100135.55;1691000;82;21038;-83
2021/06/15 08:35:14;;;;;;;4.80;3.62;;;;;;;27.34;47.58;100130.45;1688329;84;21319;-82
2021/06/15 08:37:42;;;;;;;3.90;3.67;;;;;;;27.35;47.30;100123.04;1688194;84;21563;-83
2021/06/15 08:40:10;;;;;;;5.20;3.90;;;;;;;27.38;47.18;100121.07;1627548;86;21084;-82
2021/06/15 08:42:39;;;;;;;3.05;2.77;;;;;;;27.38;47.43;100124.61;1660456;86;21010;-85
2021/06/15 08:45:08;;;;;;;4.30;3.55;;;;;;;27.32;47.76;100128.58;1661645;83;21481;-83
2021/06/15 08:47:48;;;;;;;3.50;3.40;;;;;;;27.28;47.59;100134.41;1672691;85;21060;-82
2021/06/15 08:50:20;;;;;;;4.17;2.98;;;;;;;27.23;47.07;100126.27;1672552;85;21387;-82
2021/06/15 08:52:49;;;;;;;3.00;2.58;;;;;;;27.19;47.67;100126.63;1667626;86;21082;-84
2021/06/15 08:55:17;;;;;;;2.92;2.83;;;;;;;27.18;47.18;100131.84;1674814;83;21221;-84
2021/06/15 08:58:07;;;;;;;3.47;3.22;;;;;;;27.16;46.94;100119.86;1699485;82;21000;-84
2021/06/15 09:00:33;;;;;;;2.45;2.35;;;;;;;27.13;47.23;100120.45;1635529;85;21077;-84
2021/06/15 09:02:59;;;;;;;3.30;3.00;;;;;;;26.98;47.46;100114.73;1651303;86;21091;-84
2021/06/15 09:05:25;;;;;;;1.85;1.80;;;;;;;26.90;47.92;100112.72;1662866;84;21949;-83
2021/06/15 09:08:10;;;;;;;2.87;2.65;;;;;;;26.86;46.76;100114.44;1667634;86;21013;-83
2021/06/15 09:10:42;;;;;;;2.40;2.25;;;;;;;26.86;46.57;100116.34;1725135;83;21006;-83
2021/06/15 09:13:39;;;;;;;2.75;1.77;;;;;;;26.90;46.43;100114.08;1719277;82;21057;-84
2021/06/15 09:16:22;;;;;;;1.92;1.67;;;;;;;26.94;46.53;100110.98;1702948;82;21114;-81
2021/06/15 09:18:54;;;;;;;1.20;1.20;;;;;;;26.97;46.14;100110.92;1724550;83;21101;-83
2021/06/15 09:21:33;;;;;;;2.37;1.57;;;;;;;27.00;45.44;100112.50;1720590;83;21011;-84
2021/06/15 09:24:15;;;;;;;3.55;1.67;;;;;;;27.08;45.44;100101.97;1693735;82;21110;-82
2021/06/15 09:27:09;;;;;;;4.72;2.17;;;;;;;27.13;44.79;100100.50;1710416;81;21089;-83
2021/06/15 09:29:55;;;;;;;5.55;2.35;;;;;;;27.20;45.07;100095.44;1717437;82;21030;-81
2021/06/15 09:32:26;;;;;;;3.65;2.05;;;;;;;27.26;45.14;100090.70;1709982;82;21066;-83
2021/06/15 09:35:14;;;;;;;2.17;1.27;;;;;;;27.26;45.25;100094.80;1720706;83;21051;-84
2021/06/15 09:37:56;;;;;;;1.72;1.30;;;;;;;27.24;44.42;100091.50;1702792;83;21759;-84
2021/06/15 09:40:27;;;;;;;3.70;2.12;;;;;;;27.22;43.71;100085.00;1711639;82;21026;-82
2021/06/15 09:43:04;;;;;;;3.17;1.30;;;;;;;27.29;44.09;100082.66;1704657;82;20991;-83
2021/06/15 09:45:39;;;;;;;2.25;1.15;;;;;;;27.39;44.11;100077.55;1697946;83;21074;-84
2021/06/15 09:48:36;;;;;;;3.72;1.10;;;;;;;27.43;43.08;100079.12;1717430;82;21117;-83
2021/06/15 09:51:11;;;;;;;3.52;1.62;;;;;;;27.45;43.23;100079.61;1706720;83;21058;-83
2021/06/15 09:53:48;;;;;;;5.80;0.93;;;;;;;27.42;43.19;100075.55;1701341;83;21042;-84
2021/06/15 09:56:13;;;;;;;0.90;0.82;;;;;;;27.44;42.38;100064.30;1710250;83;21029;-83
2021/06/15 09:58:45;;;;;;;2.90;1.47;;;;;;;27.51;42.54;100070.16;1701999;83;21077;-82
2021/06/15 10:01:34;;;;;;;0.65;0.60;;;;;;;27.61;41.98;100071.85;1706149;82;21057;-84
2021/06/15 10:04:18;;;;;;;2.62;0.75;;;;;;;27.72;40.31;100071.30;1702224;82;21626;-82
2021/06/15 10:06:52;;;;;;;1.90;0.40;;;;;;;27.81;38.75;100078.80;1701598;83;21006;-85
2021/06/15 10:09:32;;;;;;;1.37;0.55;;;;;;;27.87;36.94;100070.70;1714245;82;21301;-83
2021/06/15 10:12:05;;;;;;;0.88;0.40;;;;;;;27.88;36.86;100073.70;1703365;82;21120;-82
2021/06/15 10:14:34;;;;;;;3.27;0.40;;;;;;;27.83;36.36;100055.45;1703874;83;21024;-83
2021/06/15 10:17:01;;;;;;;4.08;0.53;;;;;;;27.86;36.42;100069.06;1718583;83;21033;-83
2021/06/15 10:19:28;;;;;;;0.33;0.28;;;;;;;27.84;37.10;100069.94;1716558;82;21097;-84
2021/06/15 10:21:56;;;;;;;0.50;0.45;;;;;;;27.83;37.22;100063.66;1700649;82;21061;-86
2021/06/15 10:24:24;;;;;;;3.05;0.40;;;;;;;27.86;37.67;100060.31;1593370;87;21675;-88
2021/06/15 10:26:53;;;;;;;3.10;0.88;;;;;;;27.92;38.00;100058.29;1613849;87;21085;-84
2021/06/15 10:29:22;;;;;;;1.02;0.50;;;;;;;27.98;38.64;100065.25;1617162;86;21074;-83
2021/06/15 10:31:52;;;;;;;0.80;0.80;;;;;;;27.92;39.37;100072.78;1594101;88;21114;-83
2021/06/15 10:34:49;;;;;;;1.95;0.70;;;;;;;27.76;39.79;100072.86;1613842;86;21383;-84
2021/06/15 10:37:40;;;;;;;2.42;0.60;;;;;;;27.64;39.86;100066.57;1644330;86;21506;-82
2021/06/15 10:40:24;;;;;;;0.57;0.57;;;;;;;27.64;38.78;100079.46;1651924;85;21160;-84
2021/06/15 10:43:21;;;;;;;0.65;0.33;;;;;;;27.68;39.11;100082.62;1653507;85;21096;-82
2021/06/15 10:45:58;;;;;;;1.47;0.72;;;;;;;27.73;39.06;100078.41;1659457;84;21115;-84
2021/06/15 10:48:32;;;;;;;0.40;0.30;;;;;;;27.77;39.18;100062.97;1648039;84;21088;-84
2021/06/15 10:51:01;;;;;;;1.22;0.30;;;;;;;27.81;37.96;100063.16;1654160;84;21032;-83
2021/06/15 10:53:40;;;;;;;0.75;0.25;;;;;;;27.87;36.86;100062.48;1648610;85;21044;-83
2021/06/15 10:56:11;;;;;;;0.47;0.30;;;;;;;27.96;36.52;100052.43;1639022;85;21129;-84
2021/06/15 10:58:44;;;;;;;1.60;0.57;;;;;;;28.07;36.08;100066.12;1626477;86;21101;-82
2021/06/15 11:01:18;;;;;;;0.60;0.60;;;;;;;28.17;36.45;100056.03;1631069;85;21045;-84
2021/06/15 11:03:50;;;;;;;1.22;0.23;;;;;;;28.26;36.81;100053.58;1630504;85;21042;-82
2021/06/15 11:06:29;;;;;;;2.40;0.40;;;;;;;28.40;36.66;100052.11;1640310;85;21074;-82
2021/06/15 11:09:17;;;;;;;1.20;0.60;;;;;;;28.43;37.23;100043.84;1627132;85;21078;-80
2021/06/15 11:12:07;;;;;;;1.00;0.35;;;;;;;28.41;37.76;100042.78;1639266;85;21038;-82
2021/06/15 11:14:34;;;;;;;0.50;0.50;;;;;;;28.35;37.26;100032.52;1606399;87;21043;-83
2021/06/15 11:17:01;;;;;;;1.55;0.82;;;;;;;28.29;36.85;100017.88;1602091;87;21172;-84
2021/06/15 11:19:35;;;;;;;2.52;0.50;;;;;;;28.27;37.27;100018.19;1591394;87;21175;-84
2021/06/15 11:22:10;;;;;;;0.98;0.82;;;;;;;28.29;37.36;100012.39;1614227;87;21023;-83
2021/06/15 11:24:48;;;;;;;1.65;0.80;;;;;;;28.32;37.34;100010.41;1604787;87;21078;-83
2021/06/15 11:27:24;;;;;;;1.15;0.50;;;;;;;28.35;37.60;100016.64;1645258;85;21088;-84
2021/06/15 11:29:53;;;;;;;2.05;0.47;;;;;;;28.37;37.48;100002.05;1644844;85;21139;-83
2021/06/15 11:32:36;;;;;;;1.05;0.75;;;;;;;28.36;37.36;99992.20;1646239;85;21147;-81
2021/06/15 11:35:08;;;;;;;1.05;0.57;;;;;;;28.32;37.06;99992.02;1636587;85;21023;-83
2021/06/15 11:37:46;;;;;;;2.45;0.40;;;;;;;28.31;36.88;99990.42;1660343;85;21008;-83
2021/06/15 11:40:27;;;;;;;0.30;0.30;;;;;;;27.81;37.36;99913.12;1648489;85;21593;-83
2021/06/15 11:43:12;;;;;;;0.72;0.40;;;;;;;28.35;37.11;99986.48;1649249;85;21171;-84
2021/06/15 11:45:45;;;;;;;2.87;0.50;;;;;;;28.40;37.03;99985.53;1611045;87;21153;-88
2021/06/15 11:48:33;;;;;;;1.22;0.30;;;;;;;28.43;37.52;99980.22;1649234;85;21056;-84
2021/06/15 11:51:08;;;;;;;2.72;0.55;;;;;;;28.51;37.26;99978.64;1646215;85;21120;-84
2021/06/15 11:53:41;;;;;;;20.60;1.72;;;;;;;28.61;37.56;99971.51;1646581;85;21294;-86